Gilze-Rijen, Netherlands
Current Conditions -  °F | °C
As of 11:55 PM on Friday 28 Nov 2014 (Local Time) from EHGR Reporting Station
Haze Haze  
Wind Chill: 31°   Ceiling: 14000
Heat Index: 39°   Visibility: 4mi
Dew Point: 37°   Wind: 14mph
Humidity: 93%   Direction: 100°E
Pressure: 29.85"   Gusts: NA
Location:  51.59°N, 4.92°E
Report Text: EHGR 282255Z AUTO 10012KT 7000 BR OVC140 04/03 Q1011 WHT
Loading
Personal Weather Stations






























Interactive Weather Map New forecast layout! Learn more

10-Day Weather Forecast

Advertisements
Track Severe Weather on mobile